createdAt,value
2022-12-19T00:01:16.192Z,99473.75
2022-12-19T00:03:45.642Z,99463.75
2022-12-19T00:06:14.367Z,99477.13
2022-12-19T00:08:42.991Z,99468.44
2022-12-19T00:11:14.095Z,99467.50
2022-12-19T00:13:42.946Z,99457.38
2022-12-19T00:16:15.248Z,99422.38
2022-12-19T00:18:47.433Z,99447.88
2022-12-19T00:21:18.063Z,99468.25
2022-12-19T00:23:46.695Z,99471.91
2022-12-19T00:26:18.159Z,99475.19
2022-12-19T00:28:48.395Z,99466.91
2022-12-19T00:31:17.544Z,99474.19
2022-12-19T00:33:46.424Z,99423.38
2022-12-19T00:36:18.116Z,99479.34
2022-12-19T00:38:52.318Z,99488.00
2022-12-19T00:41:23.350Z,99482.41
2022-12-19T00:43:54.389Z,99488.59
2022-12-19T00:46:23.066Z,99491.59
2022-12-19T00:48:51.260Z,99466.59
2022-12-19T00:51:20.992Z,99486.53
2022-12-19T00:53:51.127Z,99430.97
2022-12-19T00:56:23.404Z,99459.78
2022-12-19T00:58:52.104Z,99439.44
2022-12-19T01:01:27.246Z,99468.00
2022-12-19T01:04:27.220Z,99465.22
2022-12-19T01:06:44.670Z,99458.84
2022-12-19T01:09:14.027Z,99454.00
2022-12-19T01:12:01.023Z,99415.78
2022-12-19T01:14:29.252Z,99450.25
2022-12-19T01:16:57.376Z,99459.84
2022-12-19T01:19:25.740Z,99374.28
2022-12-19T01:21:53.989Z,99469.78
2022-12-19T01:24:22.614Z,99457.88
2022-12-19T01:26:52.188Z,99454.94
2022-12-19T01:29:20.570Z,99453.25
2022-12-19T01:31:48.855Z,99456.84
2022-12-19T01:34:17.143Z,99478.31
2022-12-19T01:36:45.286Z,99469.66
2022-12-19T01:39:13.475Z,99449.94
2022-12-19T01:41:41.607Z,99435.97
2022-12-19T01:44:11.229Z,99409.53
2022-12-19T01:46:42.882Z,99411.56
2022-12-19T01:49:17.243Z,99395.78
2022-12-19T01:51:49.629Z,99396.97
2022-12-19T01:54:23.672Z,99392.63
2022-12-19T01:56:54.635Z,99403.81
2022-12-19T01:59:31.198Z,99394.91
2022-12-19T02:02:11.768Z,99429.31
2022-12-19T02:04:41.814Z,99391.09
2022-12-19T02:07:16.204Z,99420.41
2022-12-19T02:09:46.300Z,99397.78
2022-12-19T02:12:15.234Z,99379.06
2022-12-19T02:14:45.183Z,99390.47
2022-12-19T02:17:20.869Z,99398.00
2022-12-19T02:20:17.149Z,99427.91
2022-12-19T02:23:05.081Z,99414.06
2022-12-19T02:26:00.121Z,99390.28
2022-12-19T02:28:53.020Z,99392.50
2022-12-19T02:31:28.849Z,99375.38
2022-12-19T02:34:04.576Z,99376.50
2022-12-19T02:36:40.412Z,99367.69
2022-12-19T02:39:15.804Z,99358.94
2022-12-19T02:41:50.047Z,99397.88
2022-12-19T02:44:22.368Z,99395.13
2022-12-19T02:46:53.624Z,99375.69
2022-12-19T02:49:29.777Z,99380.81
2022-12-19T02:51:59.483Z,99385.22
2022-12-19T02:54:27.696Z,99289.34
2022-12-19T02:57:06.448Z,99376.78
2022-12-19T02:59:47.577Z,99377.09
2022-12-19T03:02:27.105Z,99368.63
2022-12-19T03:05:00.885Z,99375.81
2022-12-19T03:07:35.457Z,99330.81
2022-12-19T03:10:14.203Z,99382.66
2022-12-19T03:12:48.557Z,99371.84
2022-12-19T03:15:17.495Z,99330.81
2022-12-19T03:17:47.338Z,99365.41
2022-12-19T03:20:25.449Z,99354.94
2022-12-19T03:22:53.712Z,99312.09
2022-12-19T03:25:23.690Z,99356.81
2022-12-19T03:27:53.386Z,99367.09
2022-12-19T03:30:21.877Z,99364.88
2022-12-19T03:32:51.610Z,99364.00
2022-12-19T03:35:23.428Z,99362.59
2022-12-19T03:37:55.242Z,99207.25
2022-12-19T03:40:26.965Z,99368.09
2022-12-19T03:43:10.003Z,99354.31
2022-12-19T03:45:49.874Z,99345.06
2022-12-19T03:48:23.743Z,99356.53
2022-12-19T03:50:59.165Z,99350.91
2022-12-19T03:53:38.181Z,99295.44
2022-12-19T03:56:14.191Z,99351.44
2022-12-19T03:58:46.825Z,99326.72
2022-12-19T04:01:15.868Z,99305.88
2022-12-19T04:03:45.795Z,99335.66
2022-12-19T04:06:15.344Z,99357.97
2022-12-19T04:08:44.061Z,99358.63
2022-12-19T04:11:17.889Z,99356.66
2022-12-19T04:13:52.992Z,99362.84
2022-12-19T04:16:26.390Z,99355.78
2022-12-19T04:19:01.226Z,99349.16
2022-12-19T04:21:34.136Z,99366.13
2022-12-19T04:24:07.364Z,99334.03
2022-12-19T04:26:37.874Z,99314.75
2022-12-19T04:29:08.654Z,99341.69
2022-12-19T04:31:38.091Z,99333.09
2022-12-19T04:34:07.724Z,99306.81
2022-12-19T04:36:36.258Z,99350.69
2022-12-19T04:39:04.908Z,99348.94
2022-12-19T04:41:33.028Z,99337.94
2022-12-19T04:44:01.142Z,99338.56
2022-12-19T04:46:29.292Z,99337.75
2022-12-19T04:48:57.480Z,99336.81
2022-12-19T04:51:27.043Z,99336.94
2022-12-19T04:53:55.227Z,99212.81
2022-12-19T04:56:23.377Z,99327.69
2022-12-19T04:58:51.563Z,99278.66
2022-12-19T05:01:19.952Z,99304.22
2022-12-19T05:03:54.241Z,99290.38
2022-12-19T05:06:23.365Z,99247.25
2022-12-19T05:08:53.068Z,99281.38
2022-12-19T05:11:21.291Z,99331.09
2022-12-19T05:13:50.309Z,99331.09
2022-12-19T05:16:19.052Z,99321.69
2022-12-19T05:18:47.412Z,99322.69
2022-12-19T05:21:15.763Z,99320.94
2022-12-19T05:23:44.171Z,99288.00
2022-12-19T05:26:13.955Z,99323.47
2022-12-19T05:28:42.416Z,99322.00
2022-12-19T05:31:12.482Z,99328.75
2022-12-19T05:33:41.521Z,99319.78
2022-12-19T05:36:10.846Z,99331.63
2022-12-19T05:38:39.058Z,99318.13
2022-12-19T05:41:11.380Z,99321.00
2022-12-19T05:43:41.013Z,99313.88
2022-12-19T05:46:09.360Z,99320.00
2022-12-19T05:48:38.153Z,99318.75
2022-12-19T05:51:06.627Z,99317.56
2022-12-19T05:53:36.705Z,99320.59
2022-12-19T05:56:06.192Z,99311.31
2022-12-19T05:58:37.940Z,99319.50
2022-12-19T06:01:09.309Z,99329.94
2022-12-19T06:03:37.644Z,99300.06
2022-12-19T06:06:07.341Z,99309.50
2022-12-19T06:08:36.124Z,99361.78
2022-12-19T06:11:06.065Z,99322.28
2022-12-19T06:13:34.864Z,99341.22
2022-12-19T06:16:04.895Z,99318.41
2022-12-19T06:18:35.141Z,99338.66
2022-12-19T06:21:04.977Z,99345.34
2022-12-19T06:23:34.379Z,99344.47
2022-12-19T06:26:04.088Z,99311.88
2022-12-19T06:28:33.119Z,99341.75
2022-12-19T06:31:03.045Z,99338.59
2022-12-19T06:33:32.423Z,99275.91
2022-12-19T06:36:03.243Z,99333.16
2022-12-19T06:38:31.885Z,99320.97
2022-12-19T06:41:17.366Z,99342.78
2022-12-19T06:43:49.225Z,99335.91
2022-12-19T06:46:21.995Z,99322.75
2022-12-19T06:48:50.145Z,99334.56
2022-12-19T06:51:19.755Z,99349.31
2022-12-19T06:53:48.005Z,99348.28
2022-12-19T06:56:17.473Z,99332.88
2022-12-19T06:58:45.917Z,99355.53
2022-12-19T07:01:18.751Z,99352.25
2022-12-19T07:03:49.293Z,99336.25
2022-12-19T07:06:17.626Z,99299.69
2022-12-19T07:08:47.178Z,99349.88
2022-12-19T07:11:15.399Z,99359.50
2022-12-19T07:13:43.580Z,99314.66
2022-12-19T07:16:11.993Z,99355.28
2022-12-19T07:18:42.369Z,99351.16
2022-12-19T07:21:12.498Z,99360.28
2022-12-19T07:23:42.138Z,99339.50
2022-12-19T07:26:11.933Z,99339.50
2022-12-19T07:28:40.418Z,99364.38
2022-12-19T07:31:08.639Z,99345.69
2022-12-19T07:33:36.907Z,99276.91
2022-12-19T07:36:05.489Z,99348.03
2022-12-19T07:38:36.868Z,99349.25
2022-12-19T07:41:05.088Z,99373.72
2022-12-19T07:43:34.698Z,99344.69
2022-12-19T07:46:02.975Z,99375.69
2022-12-19T07:48:33.294Z,99371.22
2022-12-19T07:51:05.557Z,99373.94
2022-12-19T07:53:33.858Z,99379.28
2022-12-19T07:56:02.072Z,99385.47
2022-12-19T07:58:30.247Z,99368.59
2022-12-19T08:01:01.834Z,99258.94
2022-12-19T08:03:33.285Z,99380.03
2022-12-19T08:06:02.517Z,99381.25
2022-12-19T08:08:31.236Z,99381.34
2022-12-19T08:11:08.039Z,99376.91
2022-12-19T08:13:40.773Z,99341.66
2022-12-19T08:16:13.120Z,99382.06
2022-12-19T08:18:41.751Z,99380.66
2022-12-19T08:21:10.661Z,99375.28
2022-12-19T08:23:39.388Z,99371.56
2022-12-19T08:26:09.599Z,99376.53
2022-12-19T08:28:38.482Z,99373.13
2022-12-19T08:31:11.304Z,99385.25
2022-12-19T08:33:41.084Z,99381.72
2022-12-19T08:36:11.437Z,99349.53
2022-12-19T08:38:40.125Z,99383.56
2022-12-19T08:41:09.185Z,99360.94
2022-12-19T08:43:38.291Z,99383.22
2022-12-19T08:46:07.404Z,99225.03
2022-12-19T08:48:36.543Z,99383.81
2022-12-19T08:51:07.982Z,99376.84
2022-12-19T08:53:37.992Z,99380.16
2022-12-19T08:56:09.242Z,99384.31
2022-12-19T08:58:37.531Z,99385.72
2022-12-19T09:01:09.170Z,99391.09
2022-12-19T09:03:49.654Z,99346.84
2022-12-19T09:06:28.383Z,99332.63
2022-12-19T09:08:59.894Z,99360.44
2022-12-19T09:11:29.101Z,99269.78
2022-12-19T09:13:58.425Z,99388.16
2022-12-19T09:16:28.140Z,99386.00
2022-12-19T09:18:58.815Z,99386.94
2022-12-19T09:21:30.381Z,99366.13
2022-12-19T09:24:07.184Z,99384.81
2022-12-19T09:26:38.275Z,99387.06
2022-12-19T09:29:20.487Z,99383.59
2022-12-19T09:31:51.832Z,99359.84
2022-12-19T09:34:26.086Z,99371.84
2022-12-19T09:37:01.544Z,99359.84
2022-12-19T09:39:29.839Z,99381.91
2022-12-19T09:42:26.646Z,99343.72
2022-12-19T09:45:31.908Z,99359.59
2022-12-19T09:48:02.659Z,99391.22
2022-12-19T09:50:49.835Z,99326.66
2022-12-19T09:53:26.480Z,99379.59
2022-12-19T09:55:55.700Z,99378.03
2022-12-19T09:58:33.730Z,99373.00
2022-12-19T10:01:07.586Z,99369.41
2022-12-19T10:03:40.777Z,99172.25
2022-12-19T10:06:46.123Z,99360.78
2022-12-19T10:10:51.146Z,99350.31
2022-12-19T10:12:46.642Z,99355.38
2022-12-19T10:15:07.678Z,99177.22
2022-12-19T10:17:51.261Z,99351.81
2022-12-19T10:20:24.905Z,99340.38
2022-12-19T10:23:02.804Z,99351.28
2022-12-19T10:25:41.517Z,99231.13
2022-12-19T10:28:26.882Z,99357.38
2022-12-19T10:31:18.838Z,99322.44
2022-12-19T10:33:55.049Z,99344.06
2022-12-19T10:36:36.481Z,99331.94
2022-12-19T10:39:22.203Z,99333.88
2022-12-19T10:41:56.884Z,99333.88
2022-12-19T10:44:29.406Z,99320.38
2022-12-19T10:46:57.614Z,99320.81
2022-12-19T10:49:27.797Z,99297.81
2022-12-19T10:52:00.414Z,99284.63
2022-12-19T10:54:40.058Z,99310.94
2022-12-19T10:57:27.925Z,99311.78
2022-12-19T10:59:58.344Z,99308.22
2022-12-19T11:02:35.891Z,99295.91
2022-12-19T11:05:05.874Z,99315.47
2022-12-19T11:07:34.124Z,99260.94
2022-12-19T11:11:03.964Z,99306.78
2022-12-19T11:17:08.893Z,99321.97
2022-12-19T11:20:08.554Z,99304.91
2022-12-19T11:27:03.958Z,99302.25
2022-12-19T11:29:42.048Z,99307.75
2022-12-19T11:30:39.547Z,99301.72
2022-12-19T11:30:43.941Z,99306.31
2022-12-19T11:33:16.964Z,99287.50
2022-12-19T11:35:50.980Z,99292.88
2022-12-19T11:38:25.131Z,99300.66
2022-12-19T11:40:57.741Z,99244.81
2022-12-19T11:43:47.483Z,99271.97
2022-12-19T11:46:27.964Z,99289.84
2022-12-19T11:49:02.056Z,99282.06
2022-12-19T11:51:37.111Z,99261.59
2022-12-19T11:54:14.208Z,99290.81
2022-12-19T11:56:42.465Z,99282.31
2022-12-19T11:59:18.011Z,99278.91
2022-12-19T12:02:24.684Z,99275.50
2022-12-19T12:05:09.498Z,99275.38
2022-12-19T12:08:49.372Z,99192.72
2022-12-19T12:15:11.236Z,99265.94
2022-12-19T12:19:04.282Z,99234.78
2022-12-19T12:28:03.506Z,99268.97
2022-12-19T12:30:59.743Z,99273.00
2022-12-19T12:31:57.750Z,99261.50
2022-12-19T12:32:04.348Z,99255.97
2022-12-19T12:32:05.785Z,99271.91
2022-12-19T12:35:51.346Z,99245.34
2022-12-19T12:38:18.812Z,99238.38
2022-12-19T12:40:56.084Z,99230.78
2022-12-19T12:43:37.427Z,99228.75
2022-12-19T12:46:15.817Z,99230.53
2022-12-19T12:48:48.748Z,99223.75
2022-12-19T12:51:18.634Z,99232.56
2022-12-19T12:53:49.813Z,99228.34
2022-12-19T12:56:20.459Z,99170.06
2022-12-19T12:59:21.193Z,99201.88
2022-12-19T13:01:55.875Z,99166.66
2022-12-19T13:04:34.258Z,99226.56
2022-12-19T13:07:25.732Z,99222.25
2022-12-19T13:10:08.745Z,99204.59
2022-12-19T13:13:04.399Z,99201.25
2022-12-19T13:15:39.056Z,99217.91
2022-12-19T13:18:33.652Z,99205.97
2022-12-19T13:21:04.269Z,99218.72
2022-12-19T13:23:45.120Z,99206.41
2022-12-19T13:26:45.956Z,99218.91
2022-12-19T13:29:49.094Z,99193.34
2022-12-19T13:32:17.993Z,99200.13
2022-12-19T13:35:10.569Z,99173.31
2022-12-19T13:40:00.221Z,99210.13
2022-12-19T13:40:35.424Z,99137.41
2022-12-19T13:43:34.181Z,99202.34
2022-12-19T13:46:04.934Z,99200.38
2022-12-19T13:48:36.086Z,99167.16
2022-12-19T13:51:07.747Z,99200.91
2022-12-19T13:53:37.186Z,99197.31
2022-12-19T13:56:07.935Z,99178.16
2022-12-19T13:58:45.302Z,99192.47
2022-12-19T14:01:20.917Z,99192.47
2022-12-19T14:03:52.427Z,99143.94
2022-12-19T14:06:24.716Z,99137.47
2022-12-19T14:09:16.730Z,99189.19
2022-12-19T14:12:21.079Z,99198.53
2022-12-19T14:15:06.276Z,99184.88
2022-12-19T14:17:41.270Z,99189.88
2022-12-19T14:22:01.987Z,99159.78
2022-12-19T14:23:07.200Z,99188.59
2022-12-19T14:28:17.162Z,99186.91
2022-12-19T14:28:39.865Z,99071.41
2022-12-19T14:31:14.932Z,99193.53
2022-12-19T14:36:35.859Z,99013.28
2022-12-19T14:39:25.207Z,99169.06
2022-12-19T14:42:12.054Z,99143.56
2022-12-19T14:53:51.781Z,99015.31
2022-12-19T14:53:52.563Z,99190.97
2022-12-19T14:54:21.706Z,99185.00
2022-12-19T14:54:31.210Z,99159.63
2022-12-19T14:56:47.174Z,99182.56
2022-12-19T14:59:01.827Z,99043.47
2022-12-19T15:01:33.393Z,99180.72
2022-12-19T15:04:52.889Z,99174.91
2022-12-19T15:07:08.032Z,99180.94
2022-12-19T15:11:01.041Z,99176.59
2022-12-19T15:14:48.024Z,99165.34
2022-12-19T15:15:58.915Z,99186.03
2022-12-19T15:18:29.358Z,99168.56
2022-12-19T15:21:01.376Z,99163.59
2022-12-19T15:23:30.432Z,99161.22
2022-12-19T15:26:04.465Z,99088.22
2022-12-19T15:28:40.607Z,99168.25
2022-12-19T15:31:17.629Z,99164.09
2022-12-19T15:34:07.143Z,99147.41
2022-12-19T15:36:35.555Z,99146.34
2022-12-19T15:39:04.710Z,99141.13
2022-12-19T15:41:33.024Z,99156.75
2022-12-19T15:44:06.625Z,99096.50
2022-12-19T15:46:35.967Z,99165.53
2022-12-19T15:49:04.199Z,99127.69
2022-12-19T15:51:32.398Z,99161.16
2022-12-19T15:54:22.568Z,99162.84
2022-12-19T15:56:53.980Z,99173.16
2022-12-19T15:59:34.941Z,99147.72
2022-12-19T16:02:16.396Z,99134.47
2022-12-19T16:04:45.186Z,99158.06
2022-12-19T16:07:16.776Z,99161.31
2022-12-19T16:09:46.646Z,99146.81
2022-12-19T16:12:17.055Z,99137.34
2022-12-19T16:14:46.690Z,99167.00
2022-12-19T16:17:21.193Z,99165.59
2022-12-19T16:19:51.797Z,99152.88
2022-12-19T16:22:22.581Z,99154.44
2022-12-19T16:24:53.151Z,99143.75
2022-12-19T16:27:25.954Z,99154.09
2022-12-19T16:29:55.343Z,99152.16
2022-12-19T16:32:25.700Z,99150.41
2022-12-19T16:34:54.534Z,99149.59
2022-12-19T16:37:25.877Z,99126.94
2022-12-19T16:40:00.001Z,99100.19
2022-12-19T16:42:28.419Z,99150.03
2022-12-19T16:44:56.874Z,99152.69
2022-12-19T16:47:25.176Z,99151.09
2022-12-19T16:49:53.379Z,99096.56
2022-12-19T16:52:21.582Z,99050.38
2022-12-19T16:54:51.146Z,99146.56
2022-12-19T16:57:23.472Z,99148.16
2022-12-19T16:59:52.221Z,99150.94
2022-12-19T17:02:41.694Z,99141.19
2022-12-19T17:05:18.434Z,99055.28
2022-12-19T17:07:47.011Z,99109.63
2022-12-19T17:10:18.717Z,98951.25
2022-12-19T17:12:51.258Z,99103.66
2022-12-19T17:15:27.134Z,99093.97
2022-12-19T17:17:57.137Z,99125.19
2022-12-19T17:20:29.028Z,99110.06
2022-12-19T17:22:57.295Z,99131.94
2022-12-19T17:25:27.523Z,98962.69
2022-12-19T17:27:57.868Z,99098.88
2022-12-19T17:30:26.080Z,99137.34
2022-12-19T17:32:56.751Z,99135.44
2022-12-19T17:35:33.176Z,99114.50
2022-12-19T17:38:01.489Z,99134.56
2022-12-19T17:40:31.696Z,99109.06
2022-12-19T17:43:01.652Z,99051.91
2022-12-19T17:45:31.606Z,99151.34
2022-12-19T17:48:03.512Z,99145.44
2022-12-19T17:50:37.502Z,99124.59
2022-12-19T17:53:05.716Z,99126.81
2022-12-19T17:55:34.774Z,99151.97
2022-12-19T17:58:04.525Z,99145.75
2022-12-19T18:00:34.358Z,99142.28
2022-12-19T18:03:06.807Z,99156.84
2022-12-19T18:05:37.508Z,99150.78
2022-12-19T18:08:07.866Z,99144.00
2022-12-19T18:10:36.013Z,99150.72
2022-12-19T18:13:05.763Z,99160.91
2022-12-19T18:15:33.946Z,99139.81
2022-12-19T18:18:02.338Z,99147.59
2022-12-19T18:20:32.919Z,99136.53
2022-12-19T18:23:01.735Z,99156.19
2022-12-19T18:25:32.209Z,99044.09
2022-12-19T18:28:00.540Z,99099.81
2022-12-19T18:30:30.249Z,99139.63
2022-12-19T18:33:00.586Z,99140.44
2022-12-19T18:35:32.851Z,99136.09
2022-12-19T18:38:02.514Z,99089.16
2022-12-19T18:40:31.747Z,99106.66
2022-12-19T18:43:00.442Z,99145.00
2022-12-19T18:45:36.392Z,99152.28
2022-12-19T18:48:07.982Z,99146.00
2022-12-19T18:50:36.409Z,99143.63
2022-12-19T18:53:10.555Z,99125.97
2022-12-19T18:55:38.765Z,99117.75
2022-12-19T18:58:07.250Z,99136.22
2022-12-19T19:00:39.256Z,99138.13
2022-12-19T19:03:14.583Z,99132.41
2022-12-19T19:05:43.662Z,99087.44
2022-12-19T19:08:18.469Z,99126.28
2022-12-19T19:10:48.621Z,99128.06
2022-12-19T19:13:18.392Z,99133.28
2022-12-19T19:15:51.561Z,99122.59
2022-12-19T19:18:24.899Z,99126.03
2022-12-19T19:21:00.747Z,99108.59
2022-12-19T19:23:37.673Z,99127.13
2022-12-19T19:26:07.087Z,99127.25
2022-12-19T19:28:37.321Z,99056.13
2022-12-19T19:31:10.259Z,99124.69
2022-12-19T19:33:42.100Z,99121.16
2022-12-19T19:36:13.991Z,99123.81
2022-12-19T19:38:46.815Z,99127.25
2022-12-19T19:41:15.008Z,98978.50
2022-12-19T19:43:43.172Z,99100.31
2022-12-19T19:46:13.116Z,99126.06
2022-12-19T19:48:42.814Z,99117.47
2022-12-19T19:51:12.218Z,99075.72
2022-12-19T19:53:40.403Z,99106.53
2022-12-19T19:56:09.122Z,99088.56
2022-12-19T19:58:37.312Z,99108.78
2022-12-19T20:01:10.392Z,99091.16
2022-12-19T20:03:42.100Z,99102.81
2022-12-19T20:06:11.481Z,99100.81
2022-12-19T20:08:40.891Z,99111.72
2022-12-19T20:11:10.888Z,99104.59
2022-12-19T20:13:39.682Z,99103.41
2022-12-19T20:16:10.367Z,99080.34
2022-12-19T20:18:41.125Z,99100.06
2022-12-19T20:21:13.047Z,99087.19
2022-12-19T20:23:43.662Z,99097.88
2022-12-19T20:26:12.775Z,99093.34
2022-12-19T20:28:47.907Z,99089.47
2022-12-19T20:31:17.702Z,99092.66
2022-12-19T20:33:48.523Z,99089.41
2022-12-19T20:36:18.233Z,99077.00
2022-12-19T20:38:47.356Z,98998.19
2022-12-19T20:41:16.074Z,99068.13
2022-12-19T20:43:44.989Z,99045.56
2022-12-19T20:46:15.821Z,99066.50
2022-12-19T20:48:45.063Z,99079.09
2022-12-19T20:51:16.365Z,99085.91
2022-12-19T20:53:52.861Z,99080.59
2022-12-19T20:56:23.176Z,99075.66
2022-12-19T20:58:51.691Z,99047.38
2022-12-19T21:01:21.836Z,99034.69
2022-12-19T21:03:51.083Z,99085.66
2022-12-19T21:06:25.429Z,99070.31
2022-12-19T21:08:53.803Z,99067.94
2022-12-19T21:11:22.075Z,99064.44
2022-12-19T21:13:50.334Z,99067.69
2022-12-19T21:16:20.453Z,99064.28
2022-12-19T21:18:51.238Z,99053.47
2022-12-19T21:21:24.276Z,99036.09
2022-12-19T21:23:53.363Z,99018.06
2022-12-19T21:26:23.049Z,99035.25
2022-12-19T21:28:51.808Z,99012.00
2022-12-19T21:31:22.455Z,99044.97
2022-12-19T21:33:51.538Z,99050.53
2022-12-19T21:36:23.494Z,99053.81
2022-12-19T21:38:54.105Z,99053.19
2022-12-19T21:41:22.856Z,99052.53
2022-12-19T21:43:53.802Z,99007.44
2022-12-19T21:46:24.109Z,99044.19
2022-12-19T21:48:54.837Z,99054.09
2022-12-19T21:51:26.473Z,99059.81
2022-12-19T21:53:55.478Z,99055.53
2022-12-19T21:56:25.953Z,98996.94
2022-12-19T21:58:56.553Z,99055.06
2022-12-19T22:01:28.984Z,99050.81
2022-12-19T22:04:01.237Z,99044.78
2022-12-19T22:06:37.464Z,99036.00
2022-12-19T22:09:11.058Z,99036.75
2022-12-19T22:11:39.423Z,99035.22
2022-12-19T22:14:16.167Z,99034.09
2022-12-19T22:17:30.959Z,99030.91
2022-12-19T22:20:20.055Z,99029.53
2022-12-19T22:23:01.944Z,99029.09
2022-12-19T22:25:30.464Z,99021.03
2022-12-19T22:27:59.143Z,99025.34
2022-12-19T22:30:28.768Z,99020.25
2022-12-19T22:32:59.671Z,99022.16
2022-12-19T22:35:28.225Z,99005.72
2022-12-19T22:37:58.364Z,99007.66
2022-12-19T22:40:27.640Z,98972.47
2022-12-19T22:42:56.262Z,98993.50
2022-12-19T22:45:24.480Z,99002.06
2022-12-19T22:47:52.870Z,98605.91
2022-12-19T22:50:21.065Z,98891.69
2022-12-19T22:52:49.284Z,98997.38
2022-12-19T22:55:19.147Z,99002.88
2022-12-19T22:57:47.493Z,98993.13
2022-12-19T23:00:16.304Z,98987.13
2022-12-19T23:02:44.650Z,98987.22
2022-12-19T23:05:13.070Z,98985.50
2022-12-19T23:07:41.239Z,98978.72
2022-12-19T23:10:10.587Z,98977.44
2022-12-19T23:12:40.230Z,98974.88
2022-12-19T23:15:09.180Z,98973.13
2022-12-19T23:17:37.385Z,98976.56
2022-12-19T23:20:06.221Z,98993.59
2022-12-19T23:22:34.853Z,98958.28
2022-12-19T23:25:03.231Z,98957.97
2022-12-19T23:27:31.365Z,98954.09
2022-12-19T23:30:01.023Z,98960.53
2022-12-19T23:32:35.524Z,98952.47
2022-12-19T23:35:04.903Z,98931.03
2022-12-19T23:37:33.851Z,98937.38
2022-12-19T23:40:02.322Z,98938.28
2022-12-19T23:42:30.568Z,98953.03
2022-12-19T23:45:00.360Z,98906.72
2022-12-19T23:47:28.463Z,98952.09
2022-12-19T23:49:56.725Z,98949.41
2022-12-19T23:52:24.886Z,98943.97
2022-12-19T23:54:53.053Z,98932.22
2022-12-19T23:57:21.451Z,98939.13
2022-12-19T23:59:49.886Z,98936.44
